Time;durP1;ratioP1;P1;durP2;ratioP2;P2;SDS_P1;SDS_P2;PMS_P1;PMS_P2;Temp;Humidity;BMP_temperature;BMP_pressure;BME280_temperature;BME280_humidity;BME280_pressure;Samples;Min_cycle;Max_cycle;Signal;HPM_P1;HPM_P2
2022/05/09 00:02:21;;;;;;;5.40;4.90;;;10.90;99.90;;;;;;4975743;28;20177;-54
2022/05/09 00:04:46;;;;;;;5.20;4.80;;;10.80;99.90;;;;;;4987807;28;20195;-55
2022/05/09 00:07:12;;;;;;;5.00;4.50;;;10.80;99.90;;;;;;4978196;28;20184;-54
2022/05/09 00:09:38;;;;;;;4.63;4.23;;;10.80;99.90;;;;;;4988069;28;20189;-53
2022/05/09 00:12:04;;;;;;;5.97;5.27;;;10.70;99.90;;;;;;4991587;28;20223;-51
2022/05/09 00:14:30;;;;;;;5.00;4.50;;;10.70;99.90;;;;;;4991897;28;20193;-53
2022/05/09 00:16:56;;;;;;;5.57;5.07;;;10.70;99.90;;;;;;4992232;28;20439;-55
2022/05/09 00:19:21;;;;;;;5.23;4.83;;;10.60;99.90;;;;;;4989173;28;20330;-55
2022/05/09 00:21:50;;;;;;;6.33;4.53;;;10.60;99.90;;;;;;4991848;28;20439;-55
2022/05/09 00:24:17;;;;;;;5.23;4.80;;;10.60;99.90;;;;;;4990027;28;20200;-54
2022/05/09 00:26:46;;;;;;;4.83;4.53;;;10.50;99.90;;;;;;4980180;28;20464;-57
2022/05/09 00:29:14;;;;;;;4.83;4.33;;;10.50;99.90;;;;;;4980240;28;20439;-56
2022/05/09 00:31:43;;;;;;;7.33;4.80;;;10.50;99.90;;;;;;4990879;28;21040;-56
2022/05/09 00:34:12;;;;;;;5.93;4.77;;;10.40;99.90;;;;;;4989910;28;20471;-55
2022/05/09 00:36:39;;;;;;;5.30;4.80;;;10.40;99.90;;;;;;4989569;28;20443;-58
2022/05/09 00:39:06;;;;;;;7.37;4.93;;;10.40;99.90;;;;;;4990782;28;20451;-55
2022/05/09 00:41:34;;;;;;;5.53;4.20;;;10.30;99.90;;;;;;4991521;28;20436;-55
2022/05/09 00:44:01;;;;;;;9.07;4.80;;;10.30;99.90;;;;;;4990337;28;20526;-58
2022/05/09 00:46:30;;;;;;;5.10;4.40;;;10.30;99.90;;;;;;4992309;28;20431;-56
2022/05/09 00:49:02;;;;;;;5.23;4.60;;;10.30;99.90;;;;;;4990074;28;20446;-56
2022/05/09 00:51:29;;;;;;;5.30;4.80;;;10.30;99.90;;;;;;4992107;28;20553;-57
2022/05/09 00:53:56;;;;;;;5.00;4.43;;;10.20;99.90;;;;;;4989796;28;20446;-53
2022/05/09 00:56:27;;;;;;;5.50;5.00;;;10.10;99.90;;;;;;4990091;28;20482;-52
2022/05/09 00:58:59;;;;;;;5.23;4.60;;;10.00;99.90;;;;;;4980767;28;20446;-55
2022/05/09 01:01:25;;;;;;;4.73;4.33;;;10.00;99.90;;;;;;4990110;28;20432;-54
2022/05/09 01:04:03;;;;;;;5.33;4.83;;;10.00;99.90;;;;;;4988312;28;20443;-56
2022/05/09 01:06:28;;;;;;;6.17;4.30;;;10.00;99.90;;;;;;4985951;28;20176;-57
2022/05/09 01:08:54;;;;;;;5.23;4.83;;;9.90;99.90;;;;;;4988609;28;20929;-55
2022/05/09 01:11:23;;;;;;;4.67;4.27;;;9.90;99.90;;;;;;4978918;28;20299;-56
2022/05/09 01:13:54;;;;;;;4.70;4.30;;;9.90;99.90;;;;;;4982445;28;20195;-57
2022/05/09 01:16:20;;;;;;;6.30;4.40;;;9.80;99.90;;;;;;4988423;28;20443;-54
2022/05/09 01:18:46;;;;;;;7.77;4.57;;;9.80;99.90;;;;;;4990215;28;20849;-54
2022/05/09 01:21:38;;;;;;;7.33;4.13;;;9.70;99.90;;;;;;4990564;28;20823;-55
2022/05/09 01:24:12;;;;;;;4.90;4.30;;;9.60;99.90;;;;;;4986695;28;20943;-53
2022/05/09 01:26:38;;;;;;;5.90;4.33;;;9.60;99.90;;;;;;4974740;28;20439;-55
2022/05/09 01:29:08;;;;;;;5.53;4.20;;;9.50;99.90;;;;;;4988513;28;20514;-56
2022/05/09 01:31:36;;;;;;;6.67;4.67;;;9.50;99.90;;;;;;4974593;28;20296;-57
2022/05/09 01:34:01;;;;;;;4.93;4.43;;;9.50;99.90;;;;;;4983131;28;20443;-55
2022/05/09 01:36:31;;;;;;;5.97;4.50;;;9.50;99.90;;;;;;4988143;28;20466;-53
2022/05/09 01:39:03;;;;;;;5.00;4.50;;;9.50;99.90;;;;;;4982501;28;20196;-54
2022/05/09 01:41:36;;;;;;;5.03;4.53;;;9.40;99.90;;;;;;4976615;28;20439;-54
2022/05/09 01:44:01;;;;;;;6.03;4.90;;;9.40;99.90;;;;;;4989938;28;20938;-52
2022/05/09 01:46:29;;;;;;;5.90;5.30;;;9.30;99.90;;;;;;4985861;28;20450;-54
2022/05/09 01:51:42;;;;;;;7.27;5.03;;;9.40;99.90;;;;;;4988164;28;20856;-51
2022/05/09 01:54:08;;;;;;;6.87;5.60;;;9.40;99.90;;;;;;4989389;28;20523;-53
2022/05/09 01:56:39;;;;;;;5.53;5.03;;;9.40;99.90;;;;;;4987799;28;20482;-52
2022/05/09 01:59:07;;;;;;;6.10;5.50;;;9.30;99.90;;;;;;4990188;28;20976;-52
2022/05/09 02:01:41;;;;;;;6.43;5.83;;;9.30;99.90;;;;;;4989519;28;20435;-56
2022/05/09 02:04:07;;;;;;;7.47;6.10;;;9.30;99.90;;;;;;4988863;28;20791;-53
2022/05/09 02:06:32;;;;;;;6.97;6.10;;;9.30;99.90;;;;;;4990899;28;20415;-52
2022/05/09 02:08:58;;;;;;;7.47;6.53;;;9.20;99.90;;;;;;4984851;28;20506;-50
2022/05/09 02:11:23;;;;;;;7.03;6.33;;;9.20;99.90;;;;;;4987077;28;20231;-51
2022/05/09 02:13:49;;;;;;;6.47;5.87;;;9.20;99.90;;;;;;4983561;28;20231;-52
2022/05/09 02:16:15;;;;;;;8.20;7.00;;;9.10;99.90;;;;;;4974397;28;20271;-56
2022/05/09 02:18:40;;;;;;;7.43;6.07;;;9.10;99.90;;;;;;4982139;28;20184;-51
2022/05/09 02:21:06;;;;;;;8.70;6.07;;;9.10;99.90;;;;;;4989164;28;20252;-50
2022/05/09 02:23:33;;;;;;;6.77;6.17;;;9.10;99.90;;;;;;4987857;28;20672;-53
2022/05/09 02:25:59;;;;;;;8.47;6.87;;;9.10;99.90;;;;;;4988369;28;20502;-53
2022/05/09 02:28:25;;;;;;;11.00;6.60;;;9.10;99.90;;;;;;4988918;28;20443;-51
2022/05/09 02:30:50;;;;;;;7.30;6.30;;;9.00;99.90;;;;;;4983370;28;20470;-53
2022/05/09 02:33:16;;;;;;;6.90;6.20;;;9.00;99.90;;;;;;4987826;28;20459;-49
2022/05/09 02:35:43;;;;;;;6.80;6.17;;;9.00;99.90;;;;;;4988326;28;20585;-52
2022/05/09 02:38:09;;;;;;;6.23;5.63;;;8.90;99.90;;;;;;4990292;28;20180;-53
2022/05/09 02:40:35;;;;;;;8.43;6.47;;;8.90;99.90;;;;;;4988766;28;21069;-53
2022/05/09 02:43:01;;;;;;;7.37;6.00;;;8.80;99.90;;;;;;4984447;28;20475;-51
2022/05/09 02:45:27;;;;;;;14.53;6.27;;;8.80;99.90;;;;;;4988162;28;20447;-54
2022/05/09 02:47:54;;;;;;;7.30;6.60;;;8.90;99.90;;;;;;4986438;28;21016;-52
2022/05/09 02:50:21;;;;;;;11.23;7.43;;;8.90;99.90;;;;;;4988861;28;20467;-52
2022/05/09 02:52:48;;;;;;;8.77;6.87;;;8.80;99.90;;;;;;4977062;28;20465;-55
2022/05/09 02:55:15;;;;;;;7.10;6.40;;;8.80;99.90;;;;;;4982843;28;20518;-54
2022/05/09 02:57:41;;;;;;;7.97;7.17;;;8.70;99.90;;;;;;4989281;28;20443;-55
2022/05/09 03:00:11;;;;;;;8.10;7.20;;;8.70;99.90;;;;;;4989373;28;20411;-56
2022/05/09 03:02:36;;;;;;;7.93;7.13;;;8.60;99.90;;;;;;4985107;28;20467;-52
2022/05/09 03:05:03;;;;;;;10.20;7.73;;;8.60;99.90;;;;;;4989299;28;20447;-54
2022/05/09 03:07:29;;;;;;;7.13;6.50;;;8.60;99.90;;;;;;4988541;28;20255;-52
2022/05/09 03:09:55;;;;;;;8.40;7.60;;;8.50;99.90;;;;;;4990003;28;20408;-53
2022/05/09 03:12:20;;;;;;;8.23;7.43;;;8.50;99.90;;;;;;4985757;28;20517;-54
2022/05/09 03:14:47;;;;;;;8.13;7.33;;;8.50;99.90;;;;;;4985244;28;20678;-53
2022/05/09 03:17:13;;;;;;;7.67;6.87;;;8.40;99.90;;;;;;4987330;28;20571;-56
2022/05/09 03:19:39;;;;;;;8.50;7.70;;;8.40;99.90;;;;;;4989254;28;20933;-54
2022/05/09 03:22:05;;;;;;;7.83;7.13;;;8.40;99.90;;;;;;4986375;28;20439;-52
2022/05/09 03:24:30;;;;;;;8.87;8.00;;;8.30;99.90;;;;;;4989675;28;20179;-52
2022/05/09 03:26:56;;;;;;;8.67;7.10;;;8.30;99.90;;;;;;4984554;28;20525;-54
2022/05/09 03:29:24;;;;;;;9.80;7.00;;;8.30;99.90;;;;;;4982543;28;20258;-50
2022/05/09 03:31:52;;;;;;;11.50;7.57;;;8.30;99.90;;;;;;4979975;28;20208;-54
2022/05/09 03:34:18;;;;;;;7.77;7.03;;;8.30;99.90;;;;;;4983459;28;20470;-55
2022/05/09 03:36:44;;;;;;;9.10;7.63;;;8.30;99.90;;;;;;4987904;28;20443;-52
2022/05/09 03:39:10;;;;;;;8.63;7.33;;;8.30;99.90;;;;;;4987416;28;20424;-52
2022/05/09 03:41:36;;;;;;;7.87;6.97;;;8.30;99.90;;;;;;4986770;28;20688;-52
2022/05/09 03:44:02;;;;;;;8.63;6.73;;;8.30;99.90;;;;;;4986171;28;20455;-52
2022/05/09 03:46:28;;;;;;;7.93;7.00;;;8.30;99.90;;;;;;4991844;28;20521;-50
2022/05/09 03:48:53;;;;;;;8.90;6.43;;;8.30;99.90;;;;;;4992540;28;20423;-51
2022/05/09 03:51:19;;;;;;;7.50;6.70;;;8.30;99.90;;;;;;4989503;28;20216;-53
2022/05/09 03:53:44;;;;;;;8.40;7.60;;;8.30;99.90;;;;;;4991406;28;20806;-49
2022/05/09 03:56:10;;;;;;;8.87;7.63;;;8.30;99.90;;;;;;4991371;28;20252;-53
2022/05/09 03:58:36;;;;;;;9.77;6.37;;;8.30;99.90;;;;;;4991973;28;20177;-52
2022/05/09 04:01:02;;;;;;;7.33;6.53;;;8.20;99.90;;;;;;4986212;28;20823;-51
2022/05/09 04:03:28;;;;;;;6.87;6.17;;;8.20;99.90;;;;;;4991505;28;20555;-55
2022/05/09 04:05:55;;;;;;;7.23;6.00;;;8.20;99.90;;;;;;4992297;28;20439;-58
2022/05/09 04:08:21;;;;;;;7.27;6.57;;;8.20;99.90;;;;;;4983578;28;20454;-56
2022/05/09 04:10:48;;;;;;;7.57;6.63;;;8.20;99.90;;;;;;4991823;28;20498;-54
2022/05/09 04:13:14;;;;;;;8.37;7.07;;;8.20;99.90;;;;;;4994200;28;20458;-55
2022/05/09 04:18:29;;;;;;;7.87;7.07;;;8.20;99.90;;;;;;4990273;28;20575;-53
2022/05/09 04:20:55;;;;;;;7.00;6.20;;;8.20;99.90;;;;;;4991193;28;20836;-54
2022/05/09 04:23:22;;;;;;;8.70;7.03;;;8.20;99.90;;;;;;4981348;28;20427;-56
2022/05/09 04:25:48;;;;;;;9.60;8.60;;;8.20;99.90;;;;;;4981140;28;20188;-54
2022/05/09 04:28:17;;;;;;;11.73;7.00;;;8.20;99.90;;;;;;4982663;28;20838;-54
2022/05/09 04:30:43;;;;;;;8.53;6.60;;;8.20;99.90;;;;;;4982519;28;20471;-52
2022/05/09 04:33:09;;;;;;;8.37;6.90;;;8.30;99.90;;;;;;4982541;28;20468;-57
2022/05/09 04:35:36;;;;;;;7.20;6.20;;;8.30;99.90;;;;;;4982327;28;20436;-53
2022/05/09 04:38:02;;;;;;;6.97;6.20;;;8.40;99.90;;;;;;4983612;28;20450;-52
2022/05/09 04:40:30;;;;;;;7.63;6.40;;;8.40;99.90;;;;;;4982896;28;20534;-53
2022/05/09 04:42:57;;;;;;;8.33;6.53;;;8.40;99.90;;;;;;4981384;28;20482;-55
2022/05/09 04:45:24;;;;;;;6.60;5.77;;;8.40;99.90;;;;;;4980238;28;20469;-51
2022/05/09 04:47:51;;;;;;;8.67;6.83;;;8.40;99.90;;;;;;4983635;28;20538;-53
2022/05/09 04:50:20;;;;;;;6.83;6.23;;;8.40;99.90;;;;;;4982591;28;20479;-51
2022/05/09 04:52:46;;;;;;;6.90;6.30;;;8.50;99.90;;;;;;4984287;28;20500;-56
2022/05/09 04:55:13;;;;;;;6.83;6.10;;;8.60;99.90;;;;;;4972011;28;20563;-52
2022/05/09 04:57:40;;;;;;;7.50;6.57;;;8.60;99.90;;;;;;4980880;28;20247;-58
2022/05/09 05:00:09;;;;;;;7.93;6.93;;;8.70;99.90;;;;;;4990136;28;20430;-54
2022/05/09 05:02:35;;;;;;;8.63;6.47;;;8.70;99.90;;;;;;4991783;28;20424;-52
2022/05/09 05:05:01;;;;;;;10.20;7.10;;;8.70;99.90;;;;;;4991833;28;20462;-55
2022/05/09 05:07:26;;;;;;;8.73;7.83;;;8.80;99.90;;;;;;4991651;28;20435;-53
2022/05/09 05:09:52;;;;;;;8.40;6.73;;;8.80;99.90;;;;;;4993520;28;20207;-55
2022/05/09 05:12:17;;;;;;;10.00;6.90;;;8.80;99.90;;;;;;4992445;28;20243;-55
2022/05/09 05:14:44;;;;;;;11.07;7.53;;;8.90;99.90;;;;;;4983317;28;20185;-55
2022/05/09 05:17:10;;;;;;;6.93;5.97;;;8.90;99.90;;;;;;4986753;28;20184;-51
2022/05/09 05:19:40;;;;;;;8.47;7.43;;;8.90;99.90;;;;;;4985342;28;20468;-51
2022/05/09 05:22:07;;;;;;;7.73;7.00;;;9.00;99.90;;;;;;4992518;28;20438;-52
2022/05/09 05:24:34;;;;;;;11.93;6.40;;;9.00;99.90;;;;;;4992016;28;20526;-53
2022/05/09 05:27:00;;;;;;;7.50;6.53;;;9.10;99.90;;;;;;4991642;28;20976;-57
2022/05/09 05:29:26;;;;;;;7.80;6.90;;;9.30;99.90;;;;;;4989208;28;20435;-52
2022/05/09 05:31:51;;;;;;;8.13;7.07;;;9.30;99.90;;;;;;4993085;28;20497;-54
2022/05/09 05:34:17;;;;;;;7.30;6.30;;;9.40;99.90;;;;;;4992848;28;20420;-56
2022/05/09 05:36:43;;;;;;;9.00;6.53;;;9.50;99.90;;;;;;4987931;28;20176;-55
2022/05/09 05:39:13;;;;;;;6.63;6.03;;;9.50;99.90;;;;;;4991300;28;20180;-53
2022/05/09 05:41:39;;;;;;;8.20;6.80;;;9.60;99.90;;;;;;4992176;28;20157;-54
2022/05/09 05:44:08;;;;;;;7.33;6.23;;;9.70;99.90;;;;;;4991235;28;20811;-53
2022/05/09 05:46:34;;;;;;;7.50;6.80;;;9.80;99.90;;;;;;4990773;28;20240;-53
2022/05/09 05:49:00;;;;;;;6.93;6.30;;;9.80;99.90;;;;;;4990839;28;20807;-53
2022/05/09 05:51:26;;;;;;;8.57;6.90;;;9.90;99.90;;;;;;4990392;28;20463;-56
2022/05/09 05:53:53;;;;;;;7.13;6.43;;;10.00;99.90;;;;;;4989617;28;20208;-53
2022/05/09 05:56:19;;;;;;;10.13;6.23;;;10.10;99.90;;;;;;4980321;28;20472;-56
2022/05/09 05:58:45;;;;;;;8.27;6.60;;;10.20;99.90;;;;;;4972604;28;20532;-51
2022/05/09 06:01:10;;;;;;;9.60;6.63;;;10.30;99.90;;;;;;4987470;28;20858;-58
2022/05/09 06:03:36;;;;;;;9.07;6.70;;;10.50;99.90;;;;;;4991039;28;20239;-56
2022/05/09 06:06:03;;;;;;;7.33;6.53;;;10.70;99.90;;;;;;4991244;28;20335;-49
2022/05/09 06:08:28;;;;;;;7.80;6.80;;;10.70;99.90;;;;;;4988771;28;20431;-52
2022/05/09 06:10:54;;;;;;;7.30;6.60;;;10.80;99.90;;;;;;4988201;28;20481;-54
2022/05/09 06:13:19;;;;;;;6.90;6.20;;;10.80;99.90;;;;;;4989950;28;20639;-54
2022/05/09 06:15:45;;;;;;;7.50;6.23;;;10.90;99.90;;;;;;4987702;28;20184;-56
2022/05/09 06:18:14;;;;;;;8.57;6.30;;;11.00;99.90;;;;;;4990378;28;20230;-55
2022/05/09 06:20:43;;;;;;;7.10;6.50;;;11.10;99.90;;;;;;4990319;28;20208;-54
2022/05/09 06:23:12;;;;;;;6.40;5.73;;;11.20;99.90;;;;;;4989838;28;20483;-57
2022/05/09 06:25:38;;;;;;;7.70;6.43;;;11.30;99.90;;;;;;4986754;28;20449;-52
2022/05/09 06:28:05;;;;;;;9.37;7.13;;;11.30;99.90;;;;;;4976768;28;20421;-54
2022/05/09 06:30:31;;;;;;;7.23;6.50;;;11.40;99.90;;;;;;4979137;28;21083;-58
2022/05/09 06:32:57;;;;;;;7.90;6.57;;;11.50;99.90;;;;;;4989662;28;20447;-55
2022/05/09 06:35:25;;;;;;;7.53;6.40;;;11.60;99.90;;;;;;4990433;28;20411;-59
2022/05/09 06:37:59;;;;;;;7.67;6.73;;;11.70;99.90;;;;;;4989798;28;20910;-55
2022/05/09 06:40:25;;;;;;;8.50;6.60;;;11.90;99.90;;;;;;4987021;28;20473;-53
2022/05/09 06:42:52;;;;;;;7.03;6.23;;;11.90;99.90;;;;;;4989368;28;20442;-55
2022/05/09 06:45:18;;;;;;;8.37;6.23;;;12.00;99.90;;;;;;4973135;28;20416;-50
2022/05/09 06:47:49;;;;;;;7.40;6.73;;;12.10;99.90;;;;;;4982715;28;20440;-53
2022/05/09 06:50:16;;;;;;;9.10;7.00;;;12.20;99.90;;;;;;4986407;28;20210;-56
2022/05/09 06:52:42;;;;;;;7.57;6.57;;;12.30;99.90;;;;;;4988303;28;20436;-54
2022/05/09 06:55:09;;;;;;;9.73;6.40;;;12.50;99.90;;;;;;4989850;28;21022;-54
2022/05/09 06:57:42;;;;;;;8.20;6.83;;;12.60;99.90;;;;;;4986964;28;20227;-49
2022/05/09 07:00:15;;;;;;;6.90;6.20;;;12.70;99.90;;;;;;4988944;28;20411;-52
2022/05/09 07:02:41;;;;;;;7.03;6.33;;;13.00;99.90;;;;;;4985513;28;20527;-53
2022/05/09 07:05:10;;;;;;;7.33;6.50;;;13.00;99.90;;;;;;4987721;28;20439;-55
2022/05/09 07:07:35;;;;;;;9.30;7.20;;;13.10;99.90;;;;;;4989386;28;20443;-54
2022/05/09 07:10:02;;;;;;;8.37;7.20;;;13.30;99.90;;;;;;4989736;28;20419;-55
2022/05/09 07:12:27;;;;;;;6.90;6.30;;;13.40;99.90;;;;;;4989001;28;20452;-54
2022/05/09 07:14:53;;;;;;;9.80;6.80;;;13.50;99.90;;;;;;4990017;28;20847;-57
2022/05/09 07:17:19;;;;;;;7.90;6.80;;;13.60;99.90;;;;;;4988908;28;20191;-52
2022/05/09 07:19:44;;;;;;;7.27;6.67;;;13.70;99.90;;;;;;4991697;28;20282;-53
2022/05/09 07:22:10;;;;;;;7.20;6.50;;;13.90;99.90;;;;;;4993979;28;20246;-52
2022/05/09 07:24:36;;;;;;;7.53;6.83;;;14.10;99.90;;;;;;4993342;28;20192;-53
2022/05/09 07:27:02;;;;;;;7.47;6.73;;;14.30;99.90;;;;;;4993888;28;20423;-56
2022/05/09 07:29:28;;;;;;;8.00;6.50;;;14.40;99.90;;;;;;4990558;28;20192;-52
2022/05/09 07:31:53;;;;;;;8.80;7.80;;;14.50;99.90;;;;;;4993605;28;20204;-55
2022/05/09 07:34:19;;;;;;;8.10;7.30;;;14.60;99.90;;;;;;4993655;28;20651;-52
2022/05/09 07:36:44;;;;;;;7.20;6.50;;;14.80;99.90;;;;;;5007871;28;20192;-53
2022/05/09 07:39:10;;;;;;;9.50;7.33;;;15.00;99.90;;;;;;4993794;28;20168;-54
2022/05/09 07:41:35;;;;;;;8.03;6.80;;;15.10;99.90;;;;;;4993566;28;20192;-56
2022/05/09 07:44:01;;;;;;;8.03;7.23;;;15.30;99.90;;;;;;4993605;28;20177;-56
2022/05/09 07:46:26;;;;;;;8.43;7.30;;;15.50;99.90;;;;;;4992656;28;20211;-56
2022/05/09 07:48:52;;;;;;;8.10;7.30;;;15.60;99.20;;;;;;4993287;28;20931;-53
2022/05/09 07:51:18;;;;;;;12.33;8.47;;;15.70;98.60;;;;;;4993212;28;20212;-55
2022/05/09 07:53:44;;;;;;;8.37;7.07;;;15.70;99.30;;;;;;4991741;28;20432;-54
2022/05/09 07:56:09;;;;;;;10.70;7.67;;;15.80;98.80;;;;;;4988823;28;20480;-56
2022/05/09 07:58:35;;;;;;;9.27;7.50;;;16.00;98.00;;;;;;4982770;28;20529;-56
2022/05/09 08:01:02;;;;;;;7.57;6.87;;;16.20;98.20;;;;;;4992055;28;20727;-54
2022/05/09 08:03:31;;;;;;;7.73;6.90;;;16.40;97.60;;;;;;4974018;28;20197;-52
2022/05/09 08:05:59;;;;;;;7.83;6.93;;;16.50;96.70;;;;;;4977664;28;21296;-56
2022/05/09 08:08:28;;;;;;;10.17;7.60;;;16.60;96.40;;;;;;4987628;28;20453;-55
2022/05/09 08:10:55;;;;;;;7.73;6.93;;;16.80;96.20;;;;;;4979646;28;20469;-55
2022/05/09 08:13:22;;;;;;;9.40;7.20;;;16.90;95.50;;;;;;4974625;28;20418;-54
2022/05/09 08:15:48;;;;;;;8.40;7.37;;;17.10;94.40;;;;;;4973547;28;21336;-54
2022/05/09 08:18:14;;;;;;;7.77;7.07;;;17.30;93.20;;;;;;4973371;28;20425;-54
2022/05/09 08:20:43;;;;;;;9.50;7.77;;;17.50;93.00;;;;;;4982012;28;20438;-54
2022/05/09 08:23:13;;;;;;;8.00;7.40;;;17.70;92.60;;;;;;4976446;28;20193;-53
2022/05/09 08:25:42;;;;;;;8.60;6.83;;;17.80;91.60;;;;;;4983415;28;20422;-57
2022/05/09 08:28:08;;;;;;;7.13;6.43;;;18.00;91.30;;;;;;4977558;28;20456;-55
2022/05/09 08:30:35;;;;;;;7.77;7.07;;;18.10;90.80;;;;;;4981466;28;20463;-54
2022/05/09 08:33:04;;;;;;;7.40;6.80;;;18.30;90.70;;;;;;4990489;28;20431;-58
2022/05/09 08:35:30;;;;;;;7.67;6.80;;;18.60;90.20;;;;;;4992548;28;20411;-58
2022/05/09 08:37:56;;;;;;;7.60;6.90;;;18.80;90.30;;;;;;4991713;28;20416;-56
2022/05/09 08:41:00;;;;;;;7.67;7.07;;;19.00;86.40;;;;;;4992587;28;20396;-54
2022/05/09 08:43:27;;;;;;;7.40;6.63;;;19.20;85.10;;;;;;4992225;28;20184;-55
2022/05/09 08:46:10;;;;;;;8.43;7.63;;;19.50;81.60;;;;;;4992694;28;20428;-57
2022/05/09 08:48:51;;;;;;;7.67;7.07;;;19.80;80.20;;;;;;4990531;28;20450;-55
2022/05/09 08:51:30;;;;;;;7.50;6.90;;;20.10;79.40;;;;;;4981862;28;21072;-53
2022/05/09 08:54:00;;;;;;;7.20;6.60;;;20.30;78.00;;;;;;4984188;28;20436;-57
2022/05/09 08:56:26;;;;;;;8.63;7.80;;;20.60;76.40;;;;;;4984583;28;20467;-53
2022/05/09 08:59:00;;;;;;;8.33;7.63;;;21.00;73.30;;;;;;4992072;28;20413;-53
2022/05/09 09:01:35;;;;;;;7.03;6.37;;;21.60;64.50;;;;;;4991653;28;20426;-53
2022/05/09 09:04:04;;;;;;;7.77;7.07;;;22.00;64.90;;;;;;4991311;28;20783;-54
2022/05/09 09:06:42;;;;;;;7.90;7.10;;;22.40;62.70;;;;;;4991273;28;20429;-54
2022/05/09 09:09:28;;;;;;;7.67;7.03;;;23.00;59.70;;;;;;4992157;28;20399;-53
2022/05/09 09:12:06;;;;;;;7.40;6.70;;;23.40;57.90;;;;;;4989757;28;20463;-51
2022/05/09 09:14:46;;;;;;;6.30;5.90;;;24.20;54.40;;;;;;4992060;28;20748;-53
2022/05/09 09:17:30;;;;;;;6.73;6.20;;;25.30;50.30;;;;;;4991129;28;20471;-56
2022/05/09 09:20:01;;;;;;;8.10;7.40;;;25.70;45.30;;;;;;4991015;28;20786;-56
2022/05/09 09:22:42;;;;;;;7.90;7.30;;;26.30;41.60;;;;;;4990887;28;20905;-55
2022/05/09 09:25:19;;;;;;;7.53;6.90;;;26.70;39.40;;;;;;4990692;28;20734;-50
2022/05/09 09:27:48;;;;;;;7.33;6.83;;;27.10;38.40;;;;;;4991586;28;20449;-55
2022/05/09 09:30:21;;;;;;;7.50;6.93;;;27.70;36.00;;;;;;4991601;28;20418;-54
2022/05/09 09:32:57;;;;;;;7.20;6.60;;;27.90;35.30;;;;;;4990913;28;20447;-56
2022/05/09 09:35:41;;;;;;;6.80;6.30;;;28.40;34.80;;;;;;4991409;28;20423;-54
2022/05/09 09:38:45;;;;;;;6.67;5.90;;;29.00;33.70;;;;;;4984773;28;20470;-56
2022/05/09 09:41:30;;;;;;;7.07;6.57;;;29.20;32.10;;;;;;4991625;28;20461;-52
2022/05/09 09:44:17;;;;;;;9.30;6.87;;;29.40;31.20;;;;;;4991422;28;20442;-54
2022/05/09 09:47:04;;;;;;;6.70;6.30;;;29.90;30.10;;;;;;4989350;28;20451;-54
2022/05/09 09:49:30;;;;;;;7.23;6.70;;;29.50;29.60;;;;;;4982582;28;20439;-53
2022/05/09 09:51:57;;;;;;;7.70;7.20;;;29.00;30.50;;;;;;4989951;28;20517;-55
2022/05/09 09:54:27;;;;;;;6.87;6.37;;;29.10;29.20;;;;;;4989618;28;20478;-55
2022/05/09 09:56:53;;;;;;;7.47;6.87;;;29.50;30.50;;;;;;4989352;28;20444;-53
2022/05/09 09:59:24;;;;;;;6.70;6.20;;;29.90;30.70;;;;;;4978356;28;20416;-57
2022/05/09 10:02:19;;;;;;;7.13;6.73;;;30.80;28.20;;;;;;4983252;28;20471;-54
2022/05/09 10:04:45;;;;;;;8.47;6.10;;;30.80;27.60;;;;;;4973011;28;20921;-52
2022/05/09 10:07:32;;;;;;;6.53;6.10;;;31.50;26.50;;;;;;4971272;28;20420;-54
2022/05/09 10:10:07;;;;;;;7.10;6.50;;;31.70;25.60;;;;;;4987341;28;20431;-52
2022/05/09 10:12:33;;;;;;;6.23;5.83;;;32.10;24.30;;;;;;4990583;28;20430;-54
2022/05/09 10:15:02;;;;;;;6.73;6.17;;;32.00;24.30;;;;;;4986917;28;20431;-56
2022/05/09 10:17:30;;;;;;;5.53;5.13;;;32.10;23.40;;;;;;4971002;28;20547;-53
2022/05/09 10:19:58;;;;;;;6.80;6.30;;;32.00;23.50;;;;;;4984253;28;20461;-53
2022/05/09 10:25:23;;;;;;;5.87;5.40;;;31.80;23.30;;;;;;4990394;28;20503;-53
2022/05/09 10:28:12;;;;;;;6.50;6.00;;;32.10;23.10;;;;;;4990551;28;20512;-56
2022/05/09 10:30:44;;;;;;;5.90;5.40;;;32.40;23.10;;;;;;4982271;28;20464;-57
2022/05/09 10:33:42;;;;;;;6.40;5.90;;;32.30;22.70;;;;;;4972686;28;20524;-53
2022/05/09 10:36:16;;;;;;;6.33;5.80;;;32.90;21.60;;;;;;4978527;28;20454;-52
2022/05/09 10:39:07;;;;;;;5.67;5.37;;;33.40;20.90;;;;;;4990230;28;20816;-55
2022/05/09 10:41:48;;;;;;;5.30;5.00;;;33.50;19.80;;;;;;4989973;28;20910;-54
2022/05/09 10:44:49;;;;;;;5.80;5.40;;;33.60;20.00;;;;;;4988446;28;20538;-53
2022/05/09 10:47:37;;;;;;;6.23;5.73;;;33.40;20.70;;;;;;4983660;28;20448;-55
2022/05/09 10:50:17;;;;;;;5.87;5.50;;;33.90;20.00;;;;;;4985330;28;20431;-55
2022/05/09 10:52:59;;;;;;;6.30;5.90;;;33.90;19.60;;;;;;4984702;28;20855;-55
2022/05/09 10:55:36;;;;;;;6.17;5.70;;;33.80;19.60;;;;;;4990218;28;20459;-55
2022/05/09 10:58:08;;;;;;;6.03;5.60;;;34.20;19.60;;;;;;4984821;28;20436;-56
2022/05/09 11:00:38;;;;;;;5.93;5.53;;;34.20;19.30;;;;;;4970387;28;20433;-56
2022/05/09 11:03:34;;;;;;;7.20;6.60;;;34.00;18.90;;;;;;4969853;28;20436;-54
2022/05/09 11:06:37;;;;;;;6.43;5.90;;;33.70;18.60;;;;;;4970724;28;20420;-54
2022/05/09 11:09:37;;;;;;;5.83;5.43;;;33.90;20.20;;;;;;4983564;28;21438;-55
2022/05/09 11:12:13;;;;;;;5.93;5.43;;;34.10;19.20;;;;;;4978271;28;20978;-55
2022/05/09 11:14:58;;;;;;;6.13;5.73;;;34.30;18.60;;;;;;4985757;28;21367;-56
2022/05/09 11:17:34;;;;;;;5.80;5.50;;;34.60;18.60;;;;;;4988335;28;20523;-57
2022/05/09 11:20:19;;;;;;;6.70;6.20;;;35.10;18.30;;;;;;4988457;28;20419;-54
2022/05/09 11:22:49;;;;;;;6.43;5.90;;;34.80;17.30;;;;;;4987982;28;20570;-55
2022/05/09 11:25:41;;;;;;;6.23;5.63;;;34.60;18.10;;;;;;4989878;28;20424;-52
2022/05/09 11:28:13;;;;;;;5.80;5.50;;;34.20;17.70;;;;;;4988183;28;20911;-57
2022/05/09 11:30:48;;;;;;;6.10;5.40;;;34.80;18.20;;;;;;4980024;28;20515;-52
2022/05/09 11:33:13;;;;;;;6.17;5.77;;;34.70;18.30;;;;;;4989658;28;20473;-53
2022/05/09 11:35:40;;;;;;;6.53;6.03;;;34.70;17.60;;;;;;4988416;28;21250;-56
2022/05/09 11:38:41;;;;;;;7.50;6.23;;;34.50;17.90;;;;;;4989444;28;20188;-55
2022/05/09 11:41:38;;;;;;;5.83;5.43;;;34.90;17.50;;;;;;4989323;28;20475;-54
2022/05/09 11:44:14;;;;;;;6.10;5.60;;;34.20;17.70;;;;;;4987657;28;20436;-55
2022/05/09 11:46:46;;;;;;;6.20;5.80;;;34.00;18.60;;;;;;4987338;28;20441;-57
2022/05/09 11:49:38;;;;;;;5.43;5.13;;;35.10;17.70;;;;;;4971964;28;20458;-53
2022/05/09 11:52:19;;;;;;;5.97;5.57;;;35.00;17.70;;;;;;4975443;28;20462;-54
2022/05/09 11:54:48;;;;;;;6.23;5.63;;;35.40;16.60;;;;;;4979984;28;20450;-57
2022/05/09 11:57:30;;;;;;;6.00;5.60;;;34.70;16.90;;;;;;4988829;28;20423;-55
2022/05/09 11:59:58;;;;;;;5.60;5.10;;;34.90;17.40;;;;;;4988711;28;20528;-58
2022/05/09 12:02:43;;;;;;;5.77;5.27;;;35.30;17.00;;;;;;4989531;28;20490;-58
2022/05/09 12:05:26;;;;;;;5.63;5.23;;;35.50;16.70;;;;;;4987617;28;20451;-57
2022/05/09 12:08:18;;;;;;;5.70;5.20;;;35.30;17.10;;;;;;4993036;28;20423;-54
2022/05/09 12:11:05;;;;;;;7.93;5.77;;;35.00;16.80;;;;;;4973831;28;20467;-59
2022/05/09 12:13:43;;;;;;;6.67;6.27;;;35.40;17.10;;;;;;4975667;28;20447;-56
2022/05/09 12:16:10;;;;;;;6.33;5.93;;;35.20;16.20;;;;;;4980169;28;20454;-57
2022/05/09 12:19:00;;;;;;;6.20;5.90;;;35.70;16.00;;;;;;4992564;28;20466;-58
2022/05/09 12:21:37;;;;;;;6.73;6.30;;;35.60;16.30;;;;;;4980768;28;20459;-57
2022/05/09 12:24:13;;;;;;;6.63;6.23;;;35.10;15.20;;;;;;4973122;28;20424;-56
2022/05/09 12:26:42;;;;;;;5.70;5.30;;;34.00;17.20;;;;;;4986802;28;20897;-57
2022/05/09 12:29:28;;;;;;;6.70;6.20;;;34.00;17.10;;;;;;4980071;28;20431;-58
2022/05/09 12:31:59;;;;;;;6.30;5.70;;;34.20;16.60;;;;;;4986185;28;20614;-59
2022/05/09 12:34:46;;;;;;;6.23;5.83;;;35.40;16.00;;;;;;4990980;28;20423;-57
2022/05/09 12:37:16;;;;;;;5.70;5.30;;;35.30;16.00;;;;;;4990740;28;20783;-57
2022/05/09 12:39:48;;;;;;;6.30;5.90;;;34.90;16.20;;;;;;4973847;28;20926;-55
2022/05/09 12:42:36;;;;;;;6.13;5.73;;;35.00;15.60;;;;;;4972827;28;20510;-58
2022/05/09 12:45:04;;;;;;;5.80;5.40;;;34.40;15.70;;;;;;4985487;28;20480;-54
2022/05/09 12:47:36;;;;;;;5.83;5.43;;;34.40;16.20;;;;;;4984870;28;20428;-57
2022/05/09 12:50:13;;;;;;;6.23;5.83;;;34.80;15.40;;;;;;4991335;28;20440;-57
2022/05/09 12:52:51;;;;;;;5.30;5.10;;;35.20;16.00;;;;;;4982779;28;20778;-58
2022/05/09 12:58:19;;;;;;;5.90;5.50;;;35.90;15.60;;;;;;4992123;28;20474;-57
2022/05/09 13:00:45;;;;;;;6.53;6.10;;;35.90;15.50;;;;;;4991242;28;20522;-53
2022/05/09 13:03:10;;;;;;;6.63;6.00;;;36.00;15.60;;;;;;4991696;28;20420;-54
2022/05/09 13:05:38;;;;;;;6.10;5.70;;;35.70;15.80;;;;;;4990523;28;20972;-56
2022/05/09 13:08:08;;;;;;;6.43;5.80;;;36.40;15.50;;;;;;4992118;28;20170;-55
2022/05/09 13:10:48;;;;;;;6.10;5.70;;;36.20;15.00;;;;;;4991885;28;20507;-54
2022/05/09 13:13:30;;;;;;;5.77;5.37;;;36.40;15.40;;;;;;4990308;28;20462;-54
2022/05/09 13:15:56;;;;;;;7.00;6.57;;;35.90;15.30;;;;;;4991422;28;20396;-55
2022/05/09 13:18:30;;;;;;;5.80;5.43;;;36.30;14.60;;;;;;4992249;28;20399;-56
2022/05/09 13:21:04;;;;;;;5.40;5.10;;;36.10;14.20;;;;;;4991706;28;20544;-54